aviador You're here:

KCKM Decoded Metar

in
Report Time2018-06-17 21:35:00
UTC Time2018-06-17 21:45:38
Flight Rules vfr VFR
Wind140° at 06 kt
W.Decomp.*RWY 18: 4.6 kt HW 3.9 kt LCW
W.Rank140° ranks 8
Current wind is below 140° avg. (6.9)
Visibility9999 m
Phenomena:N/A
Clouds:Scattered 048 Hf
Scattered 055 Hf
Expected CloudBase > 4,000 ft AGL from Temp-Dew spread
CeilingNone
Temp33°C
Dew Point23°C (56% RH)
Heat Index38.1°C
QNH1017 hPa
Raw Report
KCKM 172135Z AUTO 14006KT 10SM SCT048 SCT055 33/23 A3004 RMK
A01=

Extra information for KCKM:More info

Social comments